Time;durP1;ratioP1;P1;durP2;ratioP2;P2;SDS_P1;SDS_P2;PMS_P1;PMS_P2;Temp;Humidity;BMP_temperature;BMP_pressure;BME280_temperature;BME280_humidity;BME280_pressure;Samples;Min_cycle;Max_cycle;Signal;HPM_P1;HPM_P2
2021/12/26 00:01:00;;;;;;;143.02;49.63;;;5.20;87.40;;;;;;5035599;28;20051;-81
2021/12/26 00:03:29;;;;;;;144.13;52.47;;;5.20;87.50;;;;;;5035799;28;20054;-81
2021/12/26 00:06:00;;;;;;;141.55;52.47;;;5.20;87.50;;;;;;5033622;28;20049;-81
2021/12/26 00:08:27;;;;;;;134.70;50.40;;;5.20;87.40;;;;;;5069108;28;20399;-81
2021/12/26 00:10:54;;;;;;;141.85;54.55;;;5.20;87.50;;;;;;5035551;28;20416;-81
2021/12/26 00:13:22;;;;;;;157.63;55.40;;;5.20;87.50;;;;;;5035486;28;20430;-81
2021/12/26 00:15:49;;;;;;;139.13;49.95;;;5.20;87.50;;;;;;5035287;28;20041;-81
2021/12/26 00:18:16;;;;;;;144.48;52.13;;;5.20;87.50;;;;;;5035690;28;20060;-81
2021/12/26 00:20:45;;;;;;;151.70;52.65;;;5.20;87.50;;;;;;5032807;28;20049;-81
2021/12/26 00:23:13;;;;;;;134.80;52.58;;;5.20;87.50;;;;;;5035228;28;20049;-81
2021/12/26 00:25:40;;;;;;;137.30;51.58;;;5.20;87.50;;;;;;5035199;28;20037;-81
2021/12/26 00:28:07;;;;;;;143.68;51.13;;;5.20;87.50;;;;;;5035285;28;20387;-81
2021/12/26 00:30:35;;;;;;;145.07;52.10;;;5.30;87.50;;;;;;5035071;28;20147;-81
2021/12/26 00:33:02;;;;;;;139.05;51.17;;;5.20;87.50;;;;;;5034334;28;20046;-81
2021/12/26 00:35:29;;;;;;;137.48;49.85;;;5.30;87.50;;;;;;5036618;28;20524;-81
2021/12/26 00:37:56;;;;;;;133.35;48.92;;;5.20;87.50;;;;;;5035114;28;20049;-81
2021/12/26 00:40:26;;;;;;;134.85;49.33;;;5.20;87.50;;;;;;5035106;28;20045;-81
2021/12/26 00:42:54;;;;;;;144.80;51.97;;;5.20;87.50;;;;;;5035110;28;20059;-81
2021/12/26 00:45:22;;;;;;;142.32;51.30;;;5.20;87.40;;;;;;5034722;28;20057;-81
2021/12/26 00:47:50;;;;;;;142.43;51.30;;;5.20;87.40;;;;;;5033957;28;20099;-81
2021/12/26 00:50:22;;;;;;;138.13;48.70;;;5.20;87.50;;;;;;5034884;28;20037;-81
2021/12/26 00:52:50;;;;;;;143.85;50.63;;;5.20;87.50;;;;;;5034871;28;20141;-81
2021/12/26 00:55:17;;;;;;;136.93;49.08;;;5.20;87.40;;;;;;5034596;28;20046;-81
2021/12/26 00:57:45;;;;;;;139.32;50.10;;;5.20;87.50;;;;;;5034915;28;20505;-81
2021/12/26 01:00:17;;;;;;;138.20;48.28;;;5.20;87.50;;;;;;5033999;28;20060;-81
2021/12/26 01:02:44;;;;;;;143.40;49.70;;;5.20;87.50;;;;;;5032093;28;20046;-81
2021/12/26 01:05:12;;;;;;;135.80;50.08;;;5.20;87.50;;;;;;5034264;28;20061;-81
2021/12/26 01:07:55;;;;;;;145.65;51.42;;;5.20;87.50;;;;;;5034428;28;20056;-81
2021/12/26 01:10:24;;;;;;;139.05;47.53;;;5.20;87.50;;;;;;5034026;28;20050;-81
2021/12/26 01:12:53;;;;;;;138.30;47.53;;;5.20;87.50;;;;;;5034191;28;20417;-81
2021/12/26 01:15:23;;;;;;;140.98;48.83;;;5.20;87.50;;;;;;5034511;28;20049;-81
2021/12/26 01:17:57;;;;;;;132.18;47.15;;;5.20;87.50;;;;;;5033615;28;20049;-81
2021/12/26 01:20:44;;;;;;;125.65;46.33;;;5.20;87.50;;;;;;5034261;28;20073;-81
2021/12/26 01:23:14;;;;;;;131.68;48.00;;;5.20;87.50;;;;;;5034214;28;20045;-81
2021/12/26 01:25:41;;;;;;;148.38;51.63;;;5.20;87.50;;;;;;5034160;28;20050;-81
2021/12/26 01:28:09;;;;;;;155.02;50.75;;;5.20;87.50;;;;;;5033720;28;20051;-81
2021/12/26 01:30:38;;;;;;;145.88;50.38;;;5.20;87.50;;;;;;5034252;28;20037;-81
2021/12/26 01:33:08;;;;;;;128.65;49.05;;;5.20;87.50;;;;;;5033179;28;20053;-81
2021/12/26 01:35:35;;;;;;;140.80;49.45;;;5.20;87.50;;;;;;5034357;28;20048;-81
2021/12/26 01:38:03;;;;;;;133.30;47.80;;;5.20;87.50;;;;;;5033913;28;20421;-81
2021/12/26 01:40:34;;;;;;;144.23;50.65;;;5.20;87.50;;;;;;5033951;28;20041;-81
2021/12/26 01:43:03;;;;;;;145.80;49.63;;;5.20;87.50;;;;;;5033598;28;20041;-81
2021/12/26 01:45:30;;;;;;;139.70;49.45;;;5.20;87.50;;;;;;5017999;28;20040;-81
2021/12/26 01:48:02;;;;;;;138.70;47.88;;;5.20;87.50;;;;;;5028598;28;20049;-81
2021/12/26 01:50:29;;;;;;;140.25;48.70;;;5.10;87.50;;;;;;5035315;28;20045;-81
2021/12/26 01:52:59;;;;;;;153.98;49.92;;;5.20;87.50;;;;;;5033553;28;20041;-81
2021/12/26 01:55:38;;;;;;;140.20;49.17;;;5.20;87.60;;;;;;5033582;28;20128;-81
2021/12/26 01:58:09;;;;;;;146.15;49.70;;;5.10;87.60;;;;;;5033345;28;20049;-81
2021/12/26 02:00:38;;;;;;;155.38;51.00;;;5.10;87.60;;;;;;5033604;28;20056;-81
2021/12/26 02:03:06;;;;;;;142.55;50.13;;;5.10;87.60;;;;;;5032694;28;20080;-81
2021/12/26 02:05:33;;;;;;;153.63;50.75;;;5.10;87.60;;;;;;5033487;28;20059;-81
2021/12/26 02:08:01;;;;;;;148.13;49.55;;;5.20;87.60;;;;;;5033281;28;20050;-81
2021/12/26 02:10:29;;;;;;;145.23;49.78;;;5.10;87.60;;;;;;5033425;28;20048;-81
2021/12/26 02:12:56;;;;;;;140.77;49.80;;;5.10;87.60;;;;;;5033078;28;20045;-81
2021/12/26 02:15:23;;;;;;;148.65;50.58;;;5.10;87.60;;;;;;5033326;28;20045;-81
2021/12/26 02:17:51;;;;;;;142.52;49.58;;;5.10;87.60;;;;;;5032443;28;20072;-81
2021/12/26 02:20:31;;;;;;;159.95;51.65;;;5.10;87.60;;;;;;5033114;28;20383;-81
2021/12/26 02:23:05;;;;;;;149.77;50.13;;;5.10;87.60;;;;;;5032902;28;20049;-81
2021/12/26 02:28:13;;;;;;;144.43;50.28;;;5.10;87.60;;;;;;5033023;28;20052;-81
2021/12/26 02:30:40;;;;;;;140.68;48.15;;;5.10;87.60;;;;;;5031983;28;20044;-81
2021/12/26 02:33:11;;;;;;;152.57;49.83;;;5.20;87.60;;;;;;5032264;28;20053;-81
2021/12/26 02:35:39;;;;;;;146.48;49.03;;;5.20;87.60;;;;;;5033996;28;20045;-81
2021/12/26 02:38:08;;;;;;;151.70;49.35;;;5.20;87.60;;;;;;5033048;28;20056;-81
2021/12/26 02:40:36;;;;;;;151.57;51.00;;;5.20;87.60;;;;;;5031460;28;20414;-81
2021/12/26 02:43:05;;;;;;;155.45;50.00;;;5.20;87.60;;;;;;5033070;28;20053;-81
2021/12/26 02:45:33;;;;;;;152.27;50.38;;;5.20;87.70;;;;;;5017669;28;20497;-81
2021/12/26 02:48:01;;;;;;;140.43;47.47;;;5.20;87.60;;;;;;5032203;28;20050;-81
2021/12/26 02:50:30;;;;;;;165.18;50.20;;;5.20;87.70;;;;;;5034419;28;20049;-81
2021/12/26 02:53:00;;;;;;;152.80;49.17;;;5.20;87.70;;;;;;5033032;28;20051;-81
2021/12/26 02:55:28;;;;;;;144.57;49.13;;;5.20;87.70;;;;;;5032567;28;20505;-81
2021/12/26 02:58:00;;;;;;;146.73;47.03;;;5.20;87.70;;;;;;5032950;28;20524;-81
2021/12/26 03:00:30;;;;;;;158.18;49.50;;;5.20;87.70;;;;;;5032857;28;20540;-81
2021/12/26 03:02:59;;;;;;;157.05;48.65;;;5.20;87.70;;;;;;5028234;28;20054;-81
2021/12/26 03:05:32;;;;;;;139.75;48.38;;;5.20;87.70;;;;;;5032720;28;20111;-81
2021/12/26 03:07:59;;;;;;;143.60;48.28;;;5.20;87.70;;;;;;5032665;28;20057;-81
2021/12/26 03:10:28;;;;;;;142.68;48.20;;;5.20;87.70;;;;;;5032275;28;20041;-81
2021/12/26 03:12:58;;;;;;;161.43;49.97;;;5.20;87.70;;;;;;5032756;28;20043;-81
2021/12/26 03:15:27;;;;;;;154.93;51.10;;;5.20;87.70;;;;;;5032726;28;20045;-81
2021/12/26 03:17:56;;;;;;;166.57;52.15;;;5.20;87.70;;;;;;5032184;28;20050;-81
2021/12/26 03:20:26;;;;;;;159.00;49.80;;;5.20;87.70;;;;;;5032659;28;20460;-81
2021/12/26 03:22:54;;;;;;;161.40;51.65;;;5.20;87.70;;;;;;5032757;28;20041;-81
2021/12/26 03:25:23;;;;;;;169.38;50.00;;;5.30;87.70;;;;;;5032111;28;20045;-81
2021/12/26 03:27:50;;;;;;;169.15;52.33;;;5.20;87.70;;;;;;5032628;28;20049;-81
2021/12/26 03:30:21;;;;;;;160.63;51.45;;;5.20;87.70;;;;;;5032766;28;20052;-81
2021/12/26 03:32:52;;;;;;;163.35;50.92;;;5.20;87.70;;;;;;5033180;28;20049;-81
2021/12/26 03:35:20;;;;;;;164.63;51.00;;;5.20;87.70;;;;;;5036246;28;20506;-81
2021/12/26 03:37:48;;;;;;;158.80;49.70;;;5.20;87.70;;;;;;5036168;28;20075;-81
2021/12/26 03:40:15;;;;;;;159.82;49.70;;;5.20;87.70;;;;;;5036233;28;20056;-81
2021/12/26 03:42:43;;;;;;;175.73;51.67;;;5.20;87.70;;;;;;5036373;28;20045;-81
2021/12/26 03:45:29;;;;;;;150.52;47.72;;;5.30;87.70;;;;;;5020420;28;20045;-81
2021/12/26 03:47:57;;;;;;;173.05;50.55;;;5.30;87.70;;;;;;5035279;28;20049;-81
2021/12/26 03:50:27;;;;;;;161.50;50.30;;;5.30;87.70;;;;;;5035951;28;20046;-81
2021/12/26 03:52:57;;;;;;;165.02;50.60;;;5.30;87.80;;;;;;5035617;28;20049;-81
2021/12/26 03:55:28;;;;;;;164.80;49.30;;;5.30;87.70;;;;;;5035840;28;20045;-81
2021/12/26 03:57:55;;;;;;;171.60;51.22;;;5.30;87.70;;;;;;5035977;28;20056;-81
2021/12/26 04:00:24;;;;;;;165.20;50.10;;;5.20;87.70;;;;;;5035926;28;20049;-81
2021/12/26 04:02:51;;;;;;;166.32;51.40;;;5.30;87.70;;;;;;5035029;28;20063;-81
2021/12/26 04:05:19;;;;;;;165.27;50.92;;;5.30;87.70;;;;;;5035474;28;20060;-81
2021/12/26 04:07:46;;;;;;;157.93;50.15;;;5.30;87.70;;;;;;5035217;28;20080;-81
2021/12/26 04:10:16;;;;;;;157.73;49.70;;;5.30;87.70;;;;;;5067649;28;20052;-81
2021/12/26 04:12:47;;;;;;;167.48;51.25;;;5.30;87.70;;;;;;5035718;28;20049;-81
2021/12/26 04:15:17;;;;;;;166.38;50.88;;;5.30;87.70;;;;;;5035361;28;20422;-81
2021/12/26 04:17:44;;;;;;;165.82;51.33;;;5.30;87.70;;;;;;5033018;28;20049;-81
2021/12/26 04:20:12;;;;;;;157.43;50.53;;;5.30;87.80;;;;;;5035418;28;20042;-81
2021/12/26 04:22:41;;;;;;;173.98;50.85;;;5.20;87.70;;;;;;5035102;28;20045;-81
2021/12/26 04:25:08;;;;;;;166.98;49.97;;;5.20;87.70;;;;;;5035251;28;20037;-81
2021/12/26 04:27:36;;;;;;;159.60;48.38;;;5.30;87.70;;;;;;5035252;28;20049;-81
2021/12/26 04:30:10;;;;;;;159.80;49.70;;;5.30;87.70;;;;;;5034464;28;20045;-82
2021/12/26 04:32:37;;;;;;;176.20;49.97;;;5.30;87.70;;;;;;5034875;28;20061;-81
2021/12/26 04:35:05;;;;;;;175.60;49.05;;;5.30;87.70;;;;;;5035052;28;20052;-81
2021/12/26 04:37:34;;;;;;;174.65;50.35;;;5.30;87.70;;;;;;5034773;28;20050;-81
2021/12/26 04:40:04;;;;;;;157.52;49.65;;;5.30;87.70;;;;;;5035082;28;20403;-81
2021/12/26 04:42:31;;;;;;;162.50;50.15;;;5.30;87.80;;;;;;5019654;28;20047;-81
2021/12/26 04:44:58;;;;;;;172.63;50.28;;;5.30;87.80;;;;;;5029281;28;20041;-81
2021/12/26 04:47:25;;;;;;;162.27;48.63;;;5.30;87.80;;;;;;5034948;28;20387;-81
2021/12/26 04:49:52;;;;;;;173.82;50.53;;;5.30;87.80;;;;;;5034880;28;20052;-81
2021/12/26 04:52:19;;;;;;;158.30;50.42;;;5.30;87.80;;;;;;5034554;28;20111;-81
2021/12/26 04:54:46;;;;;;;165.70;49.50;;;5.30;87.80;;;;;;5034922;28;20053;-81
2021/12/26 04:57:13;;;;;;;163.70;50.28;;;5.30;87.80;;;;;;5034603;28;20050;-81
2021/12/26 04:59:40;;;;;;;154.52;48.67;;;5.30;87.80;;;;;;5032863;28;20053;-81
2021/12/26 05:02:09;;;;;;;154.35;48.35;;;5.30;87.80;;;;;;5034698;28;20053;-81
2021/12/26 05:04:36;;;;;;;162.95;49.20;;;5.30;87.80;;;;;;5034409;28;20103;-81
2021/12/26 05:07:04;;;;;;;170.48;49.80;;;5.20;87.80;;;;;;5034214;28;20045;-81
2021/12/26 05:09:31;;;;;;;157.48;48.65;;;5.30;87.80;;;;;;5019100;28;20531;-81
2021/12/26 05:11:58;;;;;;;154.15;49.45;;;5.30;87.80;;;;;;5029693;28;20136;-81
2021/12/26 05:14:25;;;;;;;155.70;47.42;;;5.30;87.80;;;;;;5034334;28;20053;-81
2021/12/26 05:16:52;;;;;;;160.02;47.38;;;5.30;87.80;;;;;;5034395;28;20041;-81
2021/12/26 05:19:19;;;;;;;157.00;48.67;;;5.30;87.80;;;;;;5034027;28;20048;-81
2021/12/26 05:21:46;;;;;;;157.10;48.05;;;5.30;87.80;;;;;;5034327;28;20056;-81
2021/12/26 05:24:14;;;;;;;166.60;47.90;;;5.30;87.80;;;;;;5034139;28;20520;-81
2021/12/26 05:26:41;;;;;;;161.88;47.22;;;5.30;87.80;;;;;;5031197;28;20505;-81
2021/12/26 05:29:08;;;;;;;159.75;48.25;;;5.30;87.80;;;;;;5065871;28;20060;-81
2021/12/26 05:31:35;;;;;;;158.55;48.65;;;5.30;87.80;;;;;;5034017;28;20043;-81
2021/12/26 05:34:03;;;;;;;151.10;48.58;;;5.30;87.80;;;;;;5065600;28;20051;-81
2021/12/26 05:36:30;;;;;;;149.60;48.05;;;5.30;87.80;;;;;;5018354;28;20041;-81
2021/12/26 05:38:57;;;;;;;155.95;46.80;;;5.30;87.80;;;;;;5033104;28;20502;-81
2021/12/26 05:41:24;;;;;;;146.10;46.15;;;5.30;87.80;;;;;;5033913;28;20092;-81
2021/12/26 05:43:51;;;;;;;148.77;46.95;;;5.30;87.90;;;;;;5033662;28;20059;-81
2021/12/26 05:46:18;;;;;;;159.77;48.38;;;5.40;87.90;;;;;;5033697;28;20041;-81
2021/12/26 05:48:45;;;;;;;159.95;48.97;;;5.30;87.90;;;;;;5033501;28;20056;-81
2021/12/26 05:51:12;;;;;;;147.57;45.28;;;5.30;87.80;;;;;;5033305;28;20054;-81
2021/12/26 05:53:39;;;;;;;153.60;46.35;;;5.30;87.80;;;;;;5031896;28;20049;-81
2021/12/26 05:56:06;;;;;;;157.38;47.00;;;5.30;87.90;;;;;;5033523;28;20502;-81
2021/12/26 05:58:34;;;;;;;172.68;49.83;;;5.40;87.90;;;;;;5033445;28;20520;-81
2021/12/26 06:01:01;;;;;;;157.32;48.53;;;5.40;87.90;;;;;;5033661;28;20051;-81
2021/12/26 06:03:28;;;;;;;161.52;46.25;;;5.40;87.90;;;;;;5033347;28;20132;-81
2021/12/26 06:05:55;;;;;;;154.52;46.03;;;5.40;87.90;;;;;;5032784;28;20049;-81
2021/12/26 06:08:22;;;;;;;157.82;46.88;;;5.40;87.90;;;;;;5033328;28;20421;-81
2021/12/26 06:10:49;;;;;;;152.38;46.17;;;5.40;87.90;;;;;;5033424;28;20424;-81
2021/12/26 06:13:16;;;;;;;158.18;48.78;;;5.40;87.90;;;;;;5033253;28;20049;-81
2021/12/26 06:15:43;;;;;;;163.95;48.15;;;5.40;87.90;;;;;;5033308;28;20042;-81
2021/12/26 06:18:10;;;;;;;152.40;46.42;;;5.40;87.90;;;;;;5032402;28;20045;-81
2021/12/26 06:20:37;;;;;;;157.55;46.97;;;5.40;87.90;;;;;;5032942;28;20430;-81
2021/12/26 06:23:04;;;;;;;169.75;48.67;;;5.40;87.90;;;;;;5033206;28;20048;-81
2021/12/26 06:25:32;;;;;;;152.77;45.05;;;5.40;87.90;;;;;;5033024;28;20056;-81
2021/12/26 06:27:59;;;;;;;166.82;46.03;;;5.40;87.90;;;;;;5033209;28;20049;-81
2021/12/26 06:30:26;;;;;;;144.68;45.70;;;5.40;87.90;;;;;;5033237;28;20041;-81
2021/12/26 06:32:53;;;;;;;166.82;45.35;;;5.40;87.90;;;;;;5032113;28;20049;-81
2021/12/26 06:35:20;;;;;;;165.57;47.03;;;5.40;87.90;;;;;;5033143;28;20041;-81
2021/12/26 06:37:47;;;;;;;164.98;46.42;;;5.40;87.90;;;;;;5033108;28;20079;-81
2021/12/26 06:40:15;;;;;;;152.32;47.55;;;5.40;87.90;;;;;;5033072;28;20494;-81
2021/12/26 06:42:44;;;;;;;163.32;46.10;;;5.40;87.90;;;;;;5033126;28;20506;-81
2021/12/26 06:45:15;;;;;;;152.85;45.53;;;5.40;87.90;;;;;;5032505;28;20065;-81
2021/12/26 06:47:48;;;;;;;152.32;43.97;;;5.40;87.90;;;;;;5029880;28;20045;-81
2021/12/26 06:50:16;;;;;;;147.93;44.70;;;5.40;87.90;;;;;;5032883;28;20049;-81
2021/12/26 06:52:43;;;;;;;141.65;44.08;;;5.40;88.00;;;;;;5032932;28;20042;-81
2021/12/26 06:55:11;;;;;;;152.50;44.75;;;5.40;88.00;;;;;;5032818;28;20060;-81
2021/12/26 06:57:40;;;;;;;147.52;45.00;;;5.50;88.00;;;;;;5033018;28;20037;-81
2021/12/26 07:00:10;;;;;;;145.30;44.28;;;5.50;88.00;;;;;;5032045;28;20055;-81
2021/12/26 07:02:37;;;;;;;141.93;43.15;;;5.50;88.00;;;;;;5033261;28;20052;-81
2021/12/26 07:05:05;;;;;;;153.60;44.90;;;5.50;88.00;;;;;;5032423;28;20053;-81
2021/12/26 07:07:32;;;;;;;142.40;44.25;;;5.50;88.00;;;;;;5033477;28;20045;-81
2021/12/26 07:10:00;;;;;;;142.35;42.85;;;5.50;88.00;;;;;;5036870;28;20049;-81
2021/12/26 07:12:26;;;;;;;155.27;44.45;;;5.50;88.00;;;;;;5036895;28;20037;-81
2021/12/26 07:14:53;;;;;;;143.05;43.35;;;5.50;88.00;;;;;;5035882;28;20049;-81
2021/12/26 07:17:21;;;;;;;140.48;42.90;;;5.50;88.00;;;;;;5036231;28;20046;-81
2021/12/26 07:19:48;;;;;;;126.38;41.67;;;5.50;88.00;;;;;;5036648;28;20049;-81
2021/12/26 07:22:15;;;;;;;128.27;42.05;;;5.50;88.00;;;;;;5036612;28;20049;-81
2021/12/26 07:24:44;;;;;;;135.52;42.95;;;5.50;88.00;;;;;;5036663;28;20042;-81
2021/12/26 07:27:11;;;;;;;126.05;41.08;;;5.50;88.00;;;;;;5035837;28;20045;-82
2021/12/26 07:29:39;;;;;;;131.52;40.90;;;5.50;88.00;;;;;;5035871;28;20053;-81
2021/12/26 07:32:08;;;;;;;125.63;41.90;;;5.50;88.00;;;;;;5036056;28;20052;-81
2021/12/26 07:34:35;;;;;;;138.88;42.90;;;5.50;88.00;;;;;;5036364;28;20052;-81
2021/12/26 07:37:03;;;;;;;117.40;39.15;;;5.60;88.00;;;;;;5036292;28;20042;-81
2021/12/26 07:39:30;;;;;;;133.15;40.47;;;5.60;88.00;;;;;;5020635;28;20045;-81
2021/12/26 07:41:57;;;;;;;121.38;39.80;;;5.60;88.00;;;;;;5035507;28;20453;-81
2021/12/26 07:44:24;;;;;;;132.65;41.47;;;5.60;88.00;;;;;;5035622;28;20049;-81
2021/12/26 07:46:52;;;;;;;119.18;41.55;;;5.60;88.10;;;;;;5036067;28;20494;-81
2021/12/26 07:49:20;;;;;;;120.43;38.72;;;5.60;88.00;;;;;;5035891;28;20050;-81
2021/12/26 07:51:48;;;;;;;125.10;41.38;;;5.60;88.10;;;;;;5036091;28;20502;-81
2021/12/26 07:54:16;;;;;;;126.68;41.95;;;5.60;88.10;;;;;;5035976;28;20120;-81
2021/12/26 07:56:44;;;;;;;110.10;38.67;;;5.60;88.10;;;;;;5030590;28;20068;-81
2021/12/26 07:59:11;;;;;;;120.18;40.75;;;5.70;88.10;;;;;;5035052;28;20045;-81
2021/12/26 08:01:40;;;;;;;133.48;41.50;;;5.60;88.10;;;;;;5034484;28;20482;-83
2021/12/26 08:04:11;;;;;;;120.82;42.03;;;5.60;88.10;;;;;;5035083;28;20052;-82
2021/12/26 08:06:39;;;;;;;126.13;40.88;;;5.70;88.10;;;;;;5035537;28;20049;-83
2021/12/26 08:09:07;;;;;;;117.30;41.65;;;5.70;88.10;;;;;;5034138;28;20053;-83
2021/12/26 08:11:34;;;;;;;114.07;41.28;;;5.70;88.10;;;;;;5035579;28;20128;-82
2021/12/26 08:14:02;;;;;;;112.68;40.03;;;5.70;88.10;;;;;;5034854;28;20180;-82
2021/12/26 08:16:29;;;;;;;123.68;40.80;;;5.70;88.10;;;;;;5034887;28;20046;-81
2021/12/26 08:18:56;;;;;;;121.00;40.28;;;5.70;88.10;;;;;;5034067;28;20052;-82
2021/12/26 08:21:23;;;;;;;112.72;38.85;;;5.70;88.10;;;;;;5035047;28;20527;-82
2021/12/26 08:23:50;;;;;;;104.90;37.47;;;5.70;88.10;;;;;;5033995;28;20053;-82
2021/12/26 08:26:17;;;;;;;106.88;38.05;;;5.70;88.10;;;;;;5035005;28;20424;-81
2021/12/26 08:28:44;;;;;;;116.28;38.67;;;5.70;88.10;;;;;;5034679;28;20056;-81
2021/12/26 08:31:12;;;;;;;110.10;39.40;;;5.80;88.10;;;;;;5034616;28;20053;-82
2021/12/26 08:33:39;;;;;;;110.95;39.60;;;5.70;88.10;;;;;;5035083;28;20053;-82
2021/12/26 08:36:07;;;;;;;109.63;37.20;;;5.80;88.20;;;;;;5033952;28;20049;-81
2021/12/26 08:38:34;;;;;;;102.80;38.78;;;5.80;88.20;;;;;;5034735;28;20057;-81
2021/12/26 08:41:01;;;;;;;110.05;38.75;;;5.80;88.20;;;;;;5035006;28;20107;-81
2021/12/26 08:43:29;;;;;;;102.10;35.88;;;5.80;88.20;;;;;;5034373;28;20577;-81
2021/12/26 08:46:11;;;;;;;110.30;37.15;;;5.80;88.20;;;;;;5033342;28;20533;-81
2021/12/26 08:48:39;;;;;;;110.18;38.58;;;5.90;88.20;;;;;;5034645;28;20072;-81
2021/12/26 08:51:06;;;;;;;102.90;37.70;;;5.90;88.20;;;;;;5033730;28;20052;-81
2021/12/26 08:53:33;;;;;;;108.43;37.58;;;5.90;88.20;;;;;;5034376;28;20049;-82
2021/12/26 08:56:02;;;;;;;113.35;39.70;;;5.90;88.20;;;;;;5034549;28;20095;-81
2021/12/26 08:58:30;;;;;;;98.72;36.80;;;5.90;88.20;;;;;;5034174;28;20080;-81
2021/12/26 09:00:57;;;;;;;101.13;37.85;;;5.90;88.20;;;;;;5033912;28;20498;-81
2021/12/26 09:03:25;;;;;;;101.97;36.95;;;5.90;88.20;;;;;;5034375;28;20107;-81
2021/12/26 09:05:52;;;;;;;104.72;38.50;;;5.90;88.20;;;;;;5033408;28;20100;-81
2021/12/26 09:08:21;;;;;;;95.00;38.55;;;5.90;88.20;;;;;;5033785;28;20057;-81
2021/12/26 09:10:49;;;;;;;97.93;38.65;;;5.90;88.20;;;;;;5034299;28;20425;-81
2021/12/26 09:13:16;;;;;;;100.32;38.47;;;5.90;88.20;;;;;;5033793;28;20061;-81
2021/12/26 09:15:43;;;;;;;96.68;38.97;;;6.00;88.20;;;;;;5034050;28;20046;-81
2021/12/26 09:18:10;;;;;;;99.65;38.35;;;6.00;88.20;;;;;;5033460;28;20480;-81
2021/12/26 09:20:37;;;;;;;89.43;39.72;;;6.00;88.20;;;;;;5033773;28;20050;-81
2021/12/26 09:23:04;;;;;;;93.60;39.17;;;6.00;88.20;;;;;;5033774;28;20050;-81
2021/12/26 09:25:32;;;;;;;92.13;39.35;;;6.00;88.20;;;;;;5034097;28;20042;-81
2021/12/26 09:27:59;;;;;;;96.60;39.92;;;6.00;88.30;;;;;;5033685;28;20045;-81
2021/12/26 09:30:26;;;;;;;91.90;39.20;;;6.00;88.20;;;;;;5033267;28;20056;-81
2021/12/26 09:32:53;;;;;;;97.13;39.38;;;6.00;88.30;;;;;;5033039;28;20053;-81
2021/12/26 09:35:20;;;;;;;91.35;39.75;;;6.10;88.30;;;;;;5033744;28;20059;-81
2021/12/26 09:37:47;;;;;;;91.93;37.95;;;6.10;88.30;;;;;;5033488;28;20041;-82
2021/12/26 09:40:16;;;;;;;99.30;38.90;;;6.10;88.30;;;;;;5033515;28;20053;-82
2021/12/26 09:42:44;;;;;;;90.50;38.60;;;6.10;88.30;;;;;;5033434;28;20041;-81
2021/12/26 09:45:12;;;;;;;88.63;39.17;;;6.20;88.40;;;;;;5032567;28;20053;-81
2021/12/26 09:47:40;;;;;;;80.82;38.40;;;6.20;88.30;;;;;;5032919;28;20068;-81
2021/12/26 09:50:11;;;;;;;84.57;37.50;;;6.20;88.40;;;;;;5033187;28;20056;-81
2021/12/26 09:52:48;;;;;;;81.10;38.47;;;6.20;88.40;;;;;;5033078;28;20037;-81
2021/12/26 09:55:16;;;;;;;76.47;38.08;;;6.30;88.40;;;;;;5033084;28;20071;-81
2021/12/26 09:57:43;;;;;;;79.65;37.58;;;6.30;88.40;;;;;;5033251;28;20399;-81
2021/12/26 10:00:21;;;;;;;75.93;37.20;;;6.30;88.40;;;;;;5032202;28;20107;-81
2021/12/26 10:03:11;;;;;;;81.97;36.47;;;6.40;88.50;;;;;;5031201;28;20057;-81
2021/12/26 10:06:11;;;;;;;79.22;37.67;;;6.40;88.50;;;;;;5033704;28;20164;-81
2021/12/26 10:08:55;;;;;;;67.70;33.58;;;6.50;88.50;;;;;;5034083;28;20054;-81
2021/12/26 10:11:29;;;;;;;74.53;32.92;;;6.50;88.60;;;;;;5032620;28;20446;-81
2021/12/26 10:14:05;;;;;;;60.92;27.58;;;6.50;88.70;;;;;;5064416;28;20042;-81
2021/12/26 10:16:39;;;;;;;68.70;31.73;;;6.60;88.70;;;;;;5032921;28;20045;-81
2021/12/26 10:19:07;;;;;;;57.92;26.40;;;6.70;88.80;;;;;;5033061;28;20046;-80
2021/12/26 10:21:47;;;;;;;65.22;27.73;;;6.80;88.80;;;;;;5032972;28;20045;-80
2021/12/26 10:24:18;;;;;;;56.33;25.05;;;6.80;88.90;;;;;;5032328;28;20437;-80
2021/12/26 10:26:51;;;;;;;56.63;27.15;;;6.90;88.90;;;;;;5030456;28;20417;-80
2021/12/26 10:29:32;;;;;;;60.80;26.60;;;7.00;88.90;;;;;;5032457;28;20054;-80
2021/12/26 10:32:04;;;;;;;54.47;23.42;;;7.10;89.00;;;;;;5032868;28;20509;-81
2021/12/26 10:34:35;;;;;;;63.05;27.35;;;7.10;89.00;;;;;;5032824;28;20045;-80
2021/12/26 10:37:09;;;;;;;52.90;22.80;;;7.20;89.00;;;;;;5032389;28;20045;-80
2021/12/26 10:39:45;;;;;;;55.97;23.45;;;7.30;89.00;;;;;;5017479;28;20517;-80
2021/12/26 10:42:25;;;;;;;50.00;22.02;;;7.30;89.00;;;;;;5030399;28;20524;-80
2021/12/26 10:44:55;;;;;;;51.95;22.85;;;7.40;89.00;;;;;;5030956;28;20556;-81
2021/12/26 10:47:29;;;;;;;44.90;19.80;;;7.50;89.00;;;;;;5032545;28;20053;-80
2021/12/26 10:50:01;;;;;;;42.13;21.77;;;7.50;89.00;;;;;;5032392;28;20131;-80
2021/12/26 10:52:38;;;;;;;42.08;21.35;;;7.60;89.00;;;;;;5032641;28;20038;-81
2021/12/26 10:55:17;;;;;;;39.95;19.35;;;7.60;89.00;;;;;;5032381;28;20045;-81
2021/12/26 10:57:47;;;;;;;38.28;19.40;;;7.70;89.00;;;;;;5032238;28;20052;-80
2021/12/26 11:00:17;;;;;;;40.38;19.80;;;7.70;89.00;;;;;;5031096;28;20049;-81
2021/12/26 11:02:51;;;;;;;37.08;17.52;;;7.80;88.90;;;;;;5029644;28;20422;-81
2021/12/26 11:05:44;;;;;;;36.38;19.02;;;7.80;88.90;;;;;;5032054;28;20046;-80
2021/12/26 11:08:24;;;;;;;35.58;17.30;;;7.90;88.90;;;;;;5032019;28;20050;-81
2021/12/26 11:10:52;;;;;;;31.27;17.17;;;7.90;88.90;;;;;;5032291;28;20049;-81
2021/12/26 11:13:22;;;;;;;32.22;16.83;;;7.90;88.90;;;;;;5031995;28;20133;-81
2021/12/26 11:15:53;;;;;;;31.95;15.65;;;7.90;88.90;;;;;;5032565;28;20053;-81
2021/12/26 11:18:20;;;;;;;31.70;16.67;;;7.90;88.90;;;;;;5032567;28;20049;-81
2021/12/26 11:20:56;;;;;;;27.67;15.57;;;8.00;88.90;;;;;;5031296;28;20421;-80
2021/12/26 11:23:31;;;;;;;29.05;15.48;;;8.00;88.80;;;;;;5031786;28;20053;-81
2021/12/26 11:26:07;;;;;;;28.63;15.57;;;8.00;88.80;;;;;;5032291;28;20041;-81
2021/12/26 11:28:37;;;;;;;27.88;15.88;;;8.00;88.80;;;;;;5031922;28;20120;-80
2021/12/26 11:31:10;;;;;;;28.58;15.38;;;8.10;88.80;;;;;;5032367;28;20060;-81
2021/12/26 11:33:38;;;;;;;30.38;16.38;;;8.20;88.80;;;;;;5017513;28;20050;-80
2021/12/26 11:36:09;;;;;;;29.98;15.52;;;8.20;88.80;;;;;;5030908;28;20053;-80
2021/12/26 11:38:38;;;;;;;28.25;15.75;;;8.20;88.80;;;;;;5032423;28;20045;-80
2021/12/26 11:41:08;;;;;;;27.38;15.52;;;8.20;88.80;;;;;;5032255;28;20074;-80
2021/12/26 11:43:50;;;;;;;30.88;15.38;;;8.30;88.80;;;;;;5031799;28;20052;-80
2021/12/26 11:46:40;;;;;;;27.30;15.65;;;8.30;88.80;;;;;;5032173;28;20047;-81
2021/12/26 11:49:30;;;;;;;28.48;14.27;;;8.30;88.80;;;;;;5031917;28;20053;-81
2021/12/26 11:52:01;;;;;;;26.30;15.05;;;8.30;88.80;;;;;;5019596;28;20046;-82
2021/12/26 11:54:47;;;;;;;29.17;15.40;;;8.40;88.80;;;;;;5033107;28;20431;-81
2021/12/26 11:57:36;;;;;;;26.23;14.95;;;8.40;88.80;;;;;;5033087;28;20053;-80
2021/12/26 12:00:27;;;;;;;31.83;16.15;;;8.40;88.80;;;;;;5030777;28;20057;-81
2021/12/26 12:02:58;;;;;;;33.42;16.48;;;8.40;88.80;;;;;;5034226;28;20494;-80
2021/12/26 12:05:36;;;;;;;29.90;15.18;;;8.40;88.80;;;;;;5034670;28;20072;-80
2021/12/26 12:08:07;;;;;;;30.73;15.20;;;8.40;88.80;;;;;;5039580;28;20050;-81
2021/12/26 12:10:47;;;;;;;26.90;14.80;;;8.50;88.80;;;;;;5029147;28;20056;-80
2021/12/26 12:13:27;;;;;;;27.55;15.00;;;8.50;88.70;;;;;;5034928;28;20074;-81
2021/12/26 12:16:00;;;;;;;28.42;16.50;;;8.50;88.70;;;;;;5035332;28;20137;-81
2021/12/26 12:18:50;;;;;;;27.60;14.43;;;8.50;88.70;;;;;;5035351;28;20398;-81
2021/12/26 12:21:30;;;;;;;29.60;15.43;;;8.60;88.70;;;;;;5033186;28;20049;-80
2021/12/26 12:24:15;;;;;;;27.27;15.32;;;8.60;88.70;;;;;;5034354;28;20049;-80
2021/12/26 12:26:42;;;;;;;30.73;15.27;;;8.60;88.70;;;;;;5031806;28;20096;-80
2021/12/26 12:29:12;;;;;;;26.73;14.10;;;8.60;88.70;;;;;;5066890;28;20056;-80
2021/12/26 12:31:39;;;;;;;28.38;14.52;;;8.60;88.70;;;;;;5034837;28;20510;-81
2021/12/26 12:34:13;;;;;;;26.13;14.10;;;8.70;88.70;;;;;;5034387;28;20041;-80
2021/12/26 12:36:44;;;;;;;24.63;13.55;;;8.70;88.70;;;;;;5034795;28;20136;-80
2021/12/26 12:39:20;;;;;;;30.45;15.75;;;8.70;88.60;;;;;;5034120;28;20045;-80
2021/12/26 12:41:50;;;;;;;31.58;15.15;;;8.70;88.60;;;;;;5031692;28;20053;-80
2021/12/26 12:44:44;;;;;;;26.40;14.32;;;8.70;88.60;;;;;;5034705;28;20064;-80
2021/12/26 12:47:19;;;;;;;32.25;16.02;;;8.70;88.60;;;;;;5034675;28;20535;-80